Time;durP1;ratioP1;P1;durP2;ratioP2;P2;SDS_P1;SDS_P2;PMS_P1;PMS_P2;Temp;Humidity;BMP_temperature;BMP_pressure;BME280_temperature;BME280_humidity;BME280_pressure;Samples;Min_cycle;Max_cycle;Signal;HPM_P1;HPM_P2
2021/06/11 00:00:11;0.00;0.00;0.62;0.00;0.00;0.62;5.07;4.67;;;30.40;26.40;;;;;;2250281;61;20361;-65
2021/06/11 00:02:42;0.00;0.00;0.62;0.00;0.00;0.62;5.43;4.93;;;30.40;26.40;;;;;;2250680;61;20373;-66
2021/06/11 00:05:11;0.00;0.00;0.62;0.00;0.00;0.62;5.13;4.67;;;30.30;26.30;;;;;;2249956;61;20349;-66
2021/06/11 00:07:38;0.00;0.00;0.62;0.00;0.00;0.62;5.13;4.60;;;30.30;26.30;;;;;;2250319;61;20361;-66
2021/06/11 00:10:09;0.00;0.00;0.62;0.00;0.00;0.62;5.27;4.77;;;30.20;26.30;;;;;;2250577;61;20589;-66
2021/06/11 00:12:36;0.00;0.00;0.62;0.00;0.00;0.62;4.50;4.10;;;30.10;26.30;;;;;;2249875;61;20389;-66
2021/06/11 00:15:04;0.00;0.00;0.62;0.00;0.00;0.62;4.53;4.13;;;30.10;26.30;;;;;;2250297;61;20385;-66
2021/06/11 00:17:31;0.00;0.00;0.62;0.00;0.00;0.62;7.63;4.63;;;30.00;26.30;;;;;;2250188;61;20361;-66
2021/06/11 00:19:58;0.00;0.00;0.62;0.00;0.00;0.62;4.40;4.10;;;30.00;26.40;;;;;;2249994;61;20357;-65
2021/06/11 00:22:26;0.00;0.00;0.62;0.00;0.00;0.62;5.07;4.57;;;29.90;26.40;;;;;;2250292;61;20392;-65
2021/06/11 00:24:52;0.00;0.00;0.62;0.00;0.00;0.62;4.33;4.03;;;29.90;26.50;;;;;;2250646;61;20362;-66
2021/06/11 00:27:19;0.00;0.00;0.62;0.00;0.00;0.62;4.90;4.40;;;29.90;26.60;;;;;;2249367;61;20605;-66
2021/06/11 00:29:45;0.00;0.00;0.62;0.00;0.00;0.62;4.40;4.00;;;29.80;26.50;;;;;;2249276;61;20388;-66
2021/06/11 00:32:12;0.00;0.00;0.62;0.00;0.00;0.62;6.03;4.07;;;29.70;26.50;;;;;;2249900;61;20378;-65
2021/06/11 00:34:38;0.00;0.00;0.62;0.00;0.00;0.62;4.27;3.97;;;29.70;26.50;;;;;;2249090;61;20390;-65
2021/06/11 00:37:06;0.00;0.00;0.62;0.00;0.00;0.62;5.03;4.63;;;29.60;26.60;;;;;;2249627;61;20697;-66
2021/06/11 00:39:34;0.00;0.00;0.62;0.00;0.00;0.62;4.17;3.50;;;29.60;26.60;;;;;;2249828;61;20357;-65
2021/06/11 00:42:01;0.00;0.00;0.62;0.00;0.00;0.62;3.97;3.67;;;29.50;26.60;;;;;;2249300;61;20392;-66
2021/06/11 00:44:28;0.00;0.00;0.62;0.00;0.00;0.62;4.10;3.80;;;29.50;26.70;;;;;;2249609;61;20573;-66
2021/06/11 00:46:55;0.00;0.00;0.62;0.00;0.00;0.62;3.40;3.10;;;29.40;26.70;;;;;;2250031;61;20362;-66
2021/06/11 00:49:22;0.00;0.00;0.62;0.00;0.00;0.62;3.50;3.10;;;29.40;26.80;;;;;;2248994;61;20362;-66
2021/06/11 00:51:49;0.00;0.00;0.62;0.00;0.00;0.62;3.23;2.90;;;29.40;26.80;;;;;;2249490;61;20496;-66
2021/06/11 00:54:16;0.00;0.00;0.62;0.00;0.00;0.62;3.80;3.47;;;29.40;26.90;;;;;;2250095;61;20392;-66
2021/06/11 00:56:44;0.00;0.00;0.62;0.00;0.00;0.62;3.07;2.87;;;29.40;27.00;;;;;;2248658;61;20357;-66
2021/06/11 00:59:11;0.00;0.00;0.62;0.00;0.00;0.62;3.50;3.20;;;29.40;27.00;;;;;;2249481;61;20394;-66
2021/06/11 01:01:41;0.00;0.00;0.62;0.00;0.00;0.62;3.20;3.00;;;29.40;27.00;;;;;;2249824;61;20388;-66
2021/06/11 01:04:07;0.00;0.00;0.62;0.00;0.00;0.62;3.43;3.13;;;29.40;27.00;;;;;;2248622;61;20362;-66
2021/06/11 01:06:36;0.00;0.00;0.62;0.00;0.00;0.62;3.43;3.13;;;29.40;27.00;;;;;;2249540;61;20441;-66
2021/06/11 01:09:03;0.00;0.00;0.62;0.00;0.00;0.62;3.83;3.43;;;29.50;27.00;;;;;;2249930;61;20564;-66
2021/06/11 01:11:30;0.00;0.00;0.62;0.00;0.00;0.62;3.87;3.47;;;29.50;27.00;;;;;;2248699;61;20597;-66
2021/06/11 01:13:58;0.00;0.00;0.62;0.00;0.00;0.62;3.70;3.20;;;29.50;27.00;;;;;;2249529;61;20400;-65
2021/06/11 01:16:24;0.00;0.00;0.62;0.00;0.00;0.62;3.63;3.30;;;29.50;27.00;;;;;;2249845;61;20365;-66
2021/06/11 01:18:51;0.00;0.00;0.62;0.00;0.00;0.62;3.70;3.40;;;29.50;27.00;;;;;;2248904;61;20737;-66
2021/06/11 01:21:22;0.00;0.00;0.62;0.00;0.00;0.62;4.73;3.30;;;29.50;27.00;;;;;;2249322;61;20392;-65
2021/06/11 01:24:14;0.00;0.00;0.62;0.00;0.00;0.62;3.40;3.10;;;29.50;27.00;;;;;;2249670;61;20489;-65
2021/06/11 01:26:46;0.00;0.00;0.62;0.00;0.00;0.62;3.80;3.50;;;29.50;27.00;;;;;;2249067;61;20368;-65
2021/06/11 01:29:17;0.00;0.00;0.62;0.00;0.00;0.62;3.00;2.70;;;29.50;27.00;;;;;;2249912;61;20627;-65
2021/06/11 01:31:49;0.00;0.00;0.62;0.00;0.00;0.62;3.80;3.50;;;29.50;27.00;;;;;;2249245;61;20413;-65
2021/06/11 01:34:24;0.00;0.00;0.62;0.00;0.00;0.62;3.70;3.40;;;29.50;27.00;;;;;;2248463;61;20381;-65
2021/06/11 01:36:55;0.00;0.00;0.62;0.00;0.00;0.62;5.13;3.70;;;29.50;26.90;;;;;;2250016;61;20408;-65
2021/06/11 01:39:24;0.00;0.00;0.62;0.00;0.00;0.62;4.17;3.80;;;29.50;26.90;;;;;;2249373;61;20361;-66
2021/06/11 01:41:54;0.00;0.00;0.62;0.00;0.00;0.62;3.50;3.20;;;29.40;26.80;;;;;;2248395;61;20385;-65
2021/06/11 01:44:23;0.00;0.00;0.62;0.00;0.00;0.62;3.27;2.97;;;29.40;26.90;;;;;;2249866;61;20358;-66
2021/06/11 01:46:53;0.00;0.00;0.62;0.00;0.00;0.62;5.90;3.73;;;29.40;26.90;;;;;;2249256;61;20365;-66
2021/06/11 01:49:21;0.00;0.00;0.62;0.00;0.00;0.62;3.70;3.40;;;29.40;26.90;;;;;;2248690;61;20361;-65
2021/06/11 01:51:49;0.00;0.00;0.62;0.00;0.00;0.62;3.70;3.40;;;29.30;26.90;;;;;;2249579;61;20615;-66
2021/06/11 01:54:17;0.00;0.00;0.62;0.00;0.00;0.62;4.17;3.77;;;29.30;27.00;;;;;;2248858;61;20421;-65
2021/06/11 01:56:45;0.00;0.00;0.62;0.00;0.00;0.62;4.43;4.03;;;29.30;27.00;;;;;;2248877;61;20657;-66
2021/06/11 01:59:13;0.00;0.00;0.62;0.00;0.00;0.62;4.00;3.60;;;29.30;27.00;;;;;;2249596;61;20365;-66
2021/06/11 02:01:41;0.00;0.00;0.62;0.00;0.00;0.62;4.47;3.83;;;29.30;27.10;;;;;;2249230;61;20425;-66
2021/06/11 02:04:08;0.00;0.00;0.62;0.00;0.00;0.62;3.80;3.40;;;29.20;27.00;;;;;;2248817;61;20499;-65
2021/06/11 02:06:35;0.00;0.00;0.62;0.00;0.00;0.62;4.30;3.60;;;29.20;27.00;;;;;;2249674;61;20389;-66
2021/06/11 02:09:03;0.00;0.00;0.62;0.00;0.00;0.62;4.20;3.67;;;29.20;27.10;;;;;;2249297;61;20514;-66
2021/06/11 02:11:29;0.00;0.00;0.62;0.00;0.00;0.62;3.47;3.17;;;29.20;27.10;;;;;;2248556;61;20737;-66
2021/06/11 02:13:56;0.00;0.00;0.62;0.00;0.00;0.62;3.97;3.67;;;29.20;27.20;;;;;;2249543;61;20717;-66
2021/06/11 02:16:28;0.00;0.00;0.62;0.00;0.00;0.62;3.83;3.53;;;29.10;27.20;;;;;;2249317;61;20446;-66
2021/06/11 02:18:58;0.00;0.00;0.62;0.00;0.00;0.62;3.57;3.27;;;29.20;27.30;;;;;;2248715;61;20368;-66
2021/06/11 02:21:27;0.00;0.00;0.62;0.00;0.00;0.62;3.60;3.30;;;29.10;27.30;;;;;;2249507;61;20393;-66
2021/06/11 02:23:54;0.00;0.00;0.62;0.00;0.00;0.62;4.40;4.00;;;29.10;27.30;;;;;;2249462;61;20361;-66
2021/06/11 02:26:21;0.00;0.00;0.62;0.00;0.00;0.62;5.00;3.50;;;29.10;27.30;;;;;;2248599;61;20365;-66
2021/06/11 02:28:49;0.00;0.00;0.62;0.00;0.00;0.62;3.90;3.60;;;29.20;27.40;;;;;;2249565;61;20587;-66
2021/06/11 02:31:16;0.00;0.00;0.62;0.00;0.00;0.62;3.40;3.10;;;29.10;27.40;;;;;;2249171;61;20377;-66
2021/06/11 02:33:44;0.00;0.00;0.62;0.00;0.00;0.62;3.80;3.50;;;29.10;27.40;;;;;;2248715;61;20376;-65
2021/06/11 02:36:11;0.00;0.00;0.62;0.00;0.00;0.62;3.60;3.30;;;29.10;27.40;;;;;;2249445;61;20689;-65
2021/06/11 02:38:37;0.00;0.00;0.62;0.00;0.00;0.62;4.10;3.70;;;29.10;27.50;;;;;;2249548;61;20368;-65
2021/06/11 02:41:06;0.00;0.00;0.62;0.00;0.00;0.62;4.20;3.80;;;29.10;27.50;;;;;;2248450;61;20377;-65
2021/06/11 02:43:39;0.00;0.00;0.62;0.00;0.00;0.62;4.50;4.10;;;29.10;27.50;;;;;;2249539;61;20444;-65
2021/06/11 02:46:12;0.00;0.00;0.62;0.00;0.00;0.62;3.90;3.60;;;29.20;27.70;;;;;;2249352;61;20396;-65
2021/06/11 02:48:47;0.00;0.00;0.62;0.00;0.00;0.62;3.57;3.23;;;29.10;27.60;;;;;;2248612;61;20393;-65
2021/06/11 02:51:25;0.00;0.00;0.62;0.00;0.00;0.62;4.17;3.77;;;29.20;27.70;;;;;;2249327;61;20457;-65
2021/06/11 02:53:53;0.00;0.00;0.62;0.00;0.00;0.62;3.17;2.87;;;29.10;27.70;;;;;;2249261;61;20373;-65
2021/06/11 02:56:25;0.00;0.00;0.62;0.00;0.00;0.62;4.20;3.80;;;29.20;27.70;;;;;;2248516;61;20357;-65
2021/06/11 02:58:58;0.00;0.00;0.62;0.00;0.00;0.62;3.87;3.57;;;29.20;27.70;;;;;;2249577;61;20365;-65
2021/06/11 03:01:27;0.00;0.00;0.62;0.00;0.00;0.62;4.97;4.43;;;29.20;27.70;;;;;;2249251;61;20726;-65
2021/06/11 03:03:58;0.00;0.00;0.62;0.00;0.00;0.62;5.47;3.93;;;29.20;27.70;;;;;;2248361;61;20369;-65
2021/06/11 03:06:25;0.00;0.00;0.62;0.00;0.00;0.62;4.30;4.00;;;29.10;27.60;;;;;;2249140;61;20603;-65
2021/06/11 03:08:53;0.00;0.00;0.62;0.00;0.00;0.62;4.00;3.70;;;29.10;27.60;;;;;;2249284;61;20368;-65
2021/06/11 03:11:26;0.00;0.00;0.62;0.00;0.00;0.62;5.30;4.80;;;29.10;27.60;;;;;;2248332;61;20378;-65
2021/06/11 03:13:54;0.00;0.00;0.62;0.00;0.00;0.62;4.23;3.83;;;29.10;27.60;;;;;;2249507;61;20365;-65
2021/06/11 03:16:22;0.00;0.00;0.62;0.00;0.00;0.62;4.50;4.10;;;29.10;27.60;;;;;;2249042;61;20369;-65
2021/06/11 03:18:54;0.00;0.00;0.62;0.00;0.00;0.62;5.60;5.00;;;29.00;27.60;;;;;;2248308;61;20350;-65
2021/06/11 03:21:25;0.00;0.00;0.62;0.00;0.00;0.62;4.43;4.03;;;29.00;27.50;;;;;;2248892;61;20454;-65
2021/06/11 03:23:57;0.00;0.00;0.62;0.00;0.00;0.62;5.77;4.13;;;29.00;27.60;;;;;;2249181;61;20369;-65
2021/06/11 03:26:30;0.00;0.00;0.62;0.00;0.00;0.62;5.90;4.40;;;28.90;27.60;;;;;;2248632;61;20358;-65
2021/06/11 03:29:02;0.00;0.00;0.62;0.00;0.00;0.62;4.20;3.53;;;28.90;27.60;;;;;;2249371;61;20354;-65
2021/06/11 03:31:35;0.00;0.00;0.62;0.00;0.00;0.62;4.07;3.67;;;28.90;27.70;;;;;;2249147;61;20378;-65
2021/06/11 03:34:06;0.00;0.00;0.62;0.00;0.00;0.62;5.73;4.33;;;28.90;27.80;;;;;;2248526;61;20690;-66
2021/06/11 03:36:39;0.00;0.00;0.62;0.00;0.00;0.62;4.60;4.13;;;28.90;27.80;;;;;;2249009;61;20589;-65
2021/06/11 03:39:15;0.00;0.00;0.62;0.00;0.00;0.62;5.20;4.70;;;28.90;27.90;;;;;;2249117;61;20372;-65
2021/06/11 03:41:43;0.00;0.00;0.62;0.00;0.00;0.62;4.60;4.17;;;28.90;27.90;;;;;;2248469;61;20373;-65
2021/06/11 03:44:12;0.00;0.00;0.62;0.00;0.00;0.62;6.50;4.07;;;28.90;28.00;;;;;;2249662;61;20364;-65
2021/06/11 03:46:42;0.00;0.00;0.62;0.00;0.00;0.62;6.63;3.90;;;28.90;28.00;;;;;;2249122;61;20404;-65
2021/06/11 03:49:09;0.00;0.00;0.62;0.00;0.00;0.62;9.30;5.20;;;28.80;28.00;;;;;;2248667;61;20366;-65
2021/06/11 03:51:40;0.00;0.00;0.62;0.00;0.00;0.62;9.37;5.20;;;28.80;27.90;;;;;;2249365;61;20594;-65
2021/06/11 03:54:10;0.00;0.00;0.62;0.00;0.00;0.62;11.87;5.43;;;28.80;27.90;;;;;;2248704;61;20712;-65
2021/06/11 03:56:39;0.00;0.00;0.62;0.00;0.00;0.62;6.60;4.50;;;28.80;28.10;;;;;;2248795;61;20714;-65
2021/06/11 03:59:10;0.00;0.00;0.62;0.00;0.00;0.62;6.57;5.17;;;28.80;27.90;;;;;;2249501;61;20365;-65
2021/06/11 04:01:44;0.00;0.00;0.62;0.00;0.00;0.62;6.87;4.57;;;28.80;28.00;;;;;;2247907;61;20427;-65
2021/06/11 04:04:11;0.00;0.00;0.62;0.00;0.00;0.62;4.57;3.87;;;28.80;28.00;;;;;;2249050;61;20601;-65
2021/06/11 04:06:43;0.00;0.00;0.62;0.00;0.00;0.62;5.70;4.40;;;28.80;28.00;;;;;;2250026;61;20358;-65
2021/06/11 04:09:15;0.00;0.00;0.62;0.00;0.00;0.62;6.40;4.43;;;28.80;28.10;;;;;;2248698;61;20404;-65
2021/06/11 04:11:46;0.00;0.00;0.62;0.00;0.00;0.62;7.83;5.47;;;28.70;28.20;;;;;;2249589;61;20336;-65
2021/06/11 04:14:18;0.00;0.00;0.62;0.00;0.00;0.62;5.37;4.00;;;28.80;28.20;;;;;;2250168;61;20357;-65
2021/06/11 04:16:47;0.00;0.00;0.62;0.00;0.00;0.62;5.87;4.40;;;28.80;28.10;;;;;;2249031;61;20419;-64
2021/06/11 04:19:20;0.00;0.00;0.62;0.00;0.00;0.62;5.63;4.63;;;28.80;28.10;;;;;;2249635;61;20573;-65
2021/06/11 04:21:50;0.00;0.00;0.62;0.00;0.00;0.62;6.50;5.13;;;28.80;28.10;;;;;;2249726;61;20385;-65
2021/06/11 04:24:22;0.00;0.00;0.62;0.00;0.00;0.62;4.63;4.20;;;28.90;28.20;;;;;;2249311;61;20580;-65
2021/06/11 04:26:50;0.00;0.00;0.62;0.00;0.00;0.62;5.77;4.47;;;28.90;28.30;;;;;;2250069;61;20737;-65
2021/06/11 04:29:17;0.00;0.00;0.62;0.00;0.00;0.62;6.70;4.30;;;28.90;28.30;;;;;;2249610;61;20370;-65
2021/06/11 04:31:44;0.00;0.00;0.62;0.00;0.00;0.62;4.90;4.40;;;28.90;28.30;;;;;;2245346;61;20423;-65
2021/06/11 04:34:16;0.00;0.00;0.62;0.00;0.00;0.62;8.03;4.30;;;28.90;28.30;;;;;;2249991;61;20362;-65
2021/06/11 04:36:44;0.00;0.00;0.62;0.00;0.00;0.62;6.53;4.67;;;28.90;28.30;;;;;;2249618;61;20361;-65
2021/06/11 04:39:13;0.00;0.00;0.62;0.00;0.00;0.62;6.10;4.53;;;28.90;28.30;;;;;;2248946;61;20726;-65
2021/06/11 04:41:40;0.00;0.00;0.62;0.00;0.00;0.62;5.20;4.23;;;28.90;28.30;;;;;;2249384;61;20377;-65
2021/06/11 04:44:08;0.00;0.00;0.62;0.00;0.00;0.62;4.60;4.30;;;28.90;28.30;;;;;;2249661;61;20625;-65
2021/06/11 04:46:35;0.00;0.00;0.62;0.00;0.00;0.62;5.43;4.40;;;28.90;28.30;;;;;;2248879;61;20701;-65
2021/06/11 04:49:02;0.00;0.00;0.62;0.00;0.00;0.62;6.27;4.50;;;29.00;28.30;;;;;;2250047;61;20357;-65
2021/06/11 04:51:29;0.00;0.00;0.62;0.00;0.00;0.62;5.70;4.30;;;29.00;28.40;;;;;;2249455;61;20381;-65
2021/06/11 04:53:55;0.00;0.00;0.62;0.00;0.00;0.62;4.50;4.10;;;29.00;28.30;;;;;;2249298;61;20405;-65
2021/06/11 04:56:23;0.00;0.00;0.62;0.00;0.00;0.62;5.43;4.93;;;29.00;28.30;;;;;;2249160;61;20378;-65
2021/06/11 04:58:52;0.00;0.00;0.62;0.00;0.00;0.62;4.37;3.97;;;29.00;28.30;;;;;;2249260;61;20361;-65
2021/06/11 05:01:18;0.00;0.00;0.62;0.00;0.00;0.62;5.17;4.70;;;29.00;28.30;;;;;;2249037;61;20369;-66
2021/06/11 05:03:45;0.00;0.00;0.62;0.00;0.00;0.62;4.23;3.80;;;29.00;28.30;;;;;;2249971;61;20443;-65
2021/06/11 05:06:11;0.00;0.00;0.62;0.00;0.00;0.62;4.63;4.10;;;29.00;28.30;;;;;;2250052;61;20381;-67
2021/06/11 05:08:38;0.00;0.00;0.62;0.00;0.00;0.62;6.23;4.70;;;29.00;28.30;;;;;;2249549;61;20699;-65
2021/06/11 05:11:04;0.00;0.00;0.62;0.00;0.00;0.62;6.33;5.10;;;29.00;28.30;;;;;;2249556;61;20373;-65
2021/06/11 05:13:33;0.00;0.00;0.62;0.00;0.00;0.62;6.40;5.80;;;29.00;28.30;;;;;;2250024;61;20362;-65
2021/06/11 05:15:59;0.00;0.00;0.62;0.00;0.00;0.62;5.37;4.87;;;29.00;28.30;;;;;;2249273;61;20393;-68
2021/06/11 05:18:27;0.00;0.00;0.62;0.00;0.00;0.62;5.10;4.60;;;29.00;28.30;;;;;;2249682;61;20578;-65
2021/06/11 05:20:54;0.00;0.00;0.62;0.00;0.00;0.62;5.50;5.00;;;29.00;28.30;;;;;;2249488;61;20660;-65
2021/06/11 05:23:21;0.00;0.00;0.62;0.00;0.00;0.62;7.00;5.27;;;29.00;28.30;;;;;;2249442;61;20393;-66
2021/06/11 05:25:49;0.00;0.00;0.62;0.00;0.00;0.62;6.47;4.90;;;29.00;28.30;;;;;;2249005;61;20376;-65
2021/06/11 05:28:16;0.00;0.00;0.62;0.00;0.00;0.62;6.80;4.97;;;29.00;28.30;;;;;;2249873;61;20441;-67
2021/06/11 05:30:44;0.00;0.00;0.62;0.00;0.00;0.62;4.53;4.13;;;29.00;28.20;;;;;;2249474;61;20753;-65
2021/06/11 05:33:11;0.00;0.00;0.62;0.00;0.00;0.62;5.63;4.53;;;29.00;28.20;;;;;;2249420;61;20414;-66
2021/06/11 05:35:37;0.00;0.00;0.62;0.00;0.00;0.62;4.70;4.10;;;29.00;28.20;;;;;;2249732;61;20461;-65
2021/06/11 05:38:05;0.00;0.00;0.62;0.00;0.00;0.62;4.60;3.87;;;29.00;28.30;;;;;;2249661;61;20744;-68
2021/06/11 05:40:32;0.00;0.00;0.62;0.00;0.00;0.62;4.27;3.90;;;29.00;28.30;;;;;;2249406;61;20377;-63
2021/06/11 05:42:59;0.00;0.00;0.62;0.00;0.00;0.62;5.30;4.77;;;29.00;28.30;;;;;;2249404;61;20584;-66
2021/06/11 05:45:26;0.00;0.00;0.62;0.00;0.00;0.62;5.23;4.73;;;29.00;28.30;;;;;;2249434;61;20350;-67
2021/06/11 05:47:54;0.00;0.00;0.62;0.00;0.00;0.62;4.83;4.07;;;29.00;28.30;;;;;;2249328;61;20384;-67
2021/06/11 05:50:21;0.00;0.00;0.62;0.00;0.00;0.62;5.23;3.97;;;29.00;28.30;;;;;;2249753;61;20437;-67
2021/06/11 05:52:48;0.00;0.00;0.62;0.00;0.00;0.62;6.47;4.90;;;29.00;28.20;;;;;;2249258;61;20779;-67
2021/06/11 05:55:14;0.00;0.00;0.62;0.00;0.00;0.62;7.40;4.10;;;29.00;28.10;;;;;;2249067;61;20385;-68
2021/06/11 05:57:41;0.00;0.00;0.62;0.00;0.00;0.62;4.57;4.17;;;29.00;28.10;;;;;;2249352;61;20401;-70
2021/06/11 06:00:10;0.00;0.00;0.62;0.00;0.00;0.62;8.30;4.70;;;29.00;28.00;;;;;;2245579;61;20381;-71
2021/06/11 06:02:37;0.00;0.00;0.62;0.00;0.00;0.62;6.10;4.40;;;29.00;28.00;;;;;;2249346;61;20445;-66
2021/06/11 06:05:08;0.00;0.00;0.62;0.00;0.00;0.62;5.50;4.50;;;29.00;28.00;;;;;;2249366;61;20357;-68
2021/06/11 06:07:36;0.00;0.00;0.62;0.00;0.00;0.62;5.00;4.60;;;28.90;27.70;;;;;;2249448;61;20864;-67
2021/06/11 06:10:02;0.00;0.00;0.62;0.00;0.00;0.62;7.10;4.13;;;28.90;27.60;;;;;;2249106;61;20492;-65
2021/06/11 06:12:29;0.00;0.00;0.62;0.00;0.00;0.62;4.10;3.70;;;28.90;27.60;;;;;;2249779;61;20388;-66
2021/06/11 06:14:57;0.00;0.00;0.62;0.00;0.00;0.62;5.47;3.90;;;28.80;27.60;;;;;;2249394;61;20431;-69
2021/06/11 06:17:24;0.00;0.00;0.62;0.00;0.00;0.62;6.20;4.50;;;28.80;27.80;;;;;;2249259;61;20409;-69
2021/06/11 06:19:51;0.00;0.00;0.62;0.00;0.00;0.62;4.00;3.60;;;28.80;27.90;;;;;;2249240;61;20713;-68
2021/06/11 06:22:19;0.00;0.00;0.62;0.00;0.00;0.62;6.40;4.57;;;28.80;28.00;;;;;;2249075;61;20389;-69
2021/06/11 06:24:46;0.00;0.00;0.62;0.00;0.00;0.62;6.40;4.07;;;28.70;27.90;;;;;;2247617;61;20582;-66
2021/06/11 06:27:12;0.00;0.00;0.62;0.00;0.00;0.62;6.97;4.87;;;28.70;27.80;;;;;;2244586;61;20357;-67
2021/06/11 06:29:40;0.00;0.00;0.62;0.00;0.00;0.62;5.10;4.17;;;28.70;27.60;;;;;;2248779;61;20366;-68
2021/06/11 06:32:08;0.00;0.00;0.62;0.00;0.00;0.62;9.70;4.80;;;28.70;27.40;;;;;;2249261;61;20376;-66
2021/06/11 06:34:34;0.00;0.00;0.62;0.00;0.00;0.62;5.20;4.30;;;28.70;27.20;;;;;;2249121;61;20389;-64
2021/06/11 06:37:01;0.00;0.00;0.62;0.00;0.00;0.62;4.37;3.97;;;28.70;27.20;;;;;;2248924;61;20712;-66
2021/06/11 06:39:29;0.00;0.00;0.62;0.00;0.00;0.62;5.03;4.53;;;28.60;27.30;;;;;;2249247;61;20365;-66
2021/06/11 06:41:58;0.00;0.00;0.62;0.00;0.00;0.62;5.63;4.37;;;28.60;27.40;;;;;;2249022;61;20749;-67
2021/06/11 06:44:24;0.00;0.00;0.62;0.00;0.00;0.62;5.13;4.30;;;28.60;27.40;;;;;;2251696;61;20489;-67
2021/06/11 06:46:51;0.00;0.00;0.62;0.00;0.00;0.62;4.60;4.20;;;28.60;27.40;;;;;;2249306;61;20358;-65
2021/06/11 06:49:17;0.00;0.00;0.62;0.00;0.00;0.62;5.43;4.93;;;28.60;27.40;;;;;;2249029;61;20401;-66
2021/06/11 06:51:44;0.00;0.00;0.62;0.00;0.00;0.62;4.80;4.30;;;28.60;27.30;;;;;;2249058;61;20384;-66
2021/06/11 06:54:10;0.00;0.00;0.62;0.00;0.00;0.62;10.10;4.97;;;28.60;27.20;;;;;;2249286;61;20357;-66
2021/06/11 06:56:38;0.00;0.00;0.62;0.00;0.00;0.62;4.03;3.63;;;28.60;27.00;;;;;;2249092;61;20404;-65
2021/06/11 06:59:05;0.00;0.00;0.62;0.00;0.00;0.62;6.07;4.60;;;28.60;27.00;;;;;;2249534;61;20372;-68
2021/06/11 07:01:31;0.00;0.00;0.62;0.00;0.00;0.62;4.53;4.10;;;28.60;26.90;;;;;;2248935;61;20382;-67
2021/06/11 07:03:59;0.00;0.00;0.62;0.00;0.00;0.62;4.40;3.77;;;28.60;26.90;;;;;;2249086;61;20358;-68
2021/06/11 07:06:27;0.00;0.00;0.62;0.00;0.00;0.62;6.33;3.47;;;28.50;26.80;;;;;;2249633;61;20376;-67
2021/06/11 07:08:54;0.00;0.00;0.62;0.00;0.00;0.62;3.70;3.40;;;28.50;26.90;;;;;;2248894;61;20365;-67
2021/06/11 07:11:21;0.00;0.00;0.62;0.00;0.00;0.62;5.10;3.20;;;28.50;27.00;;;;;;2248911;61;20380;-66
2021/06/11 07:13:49;0.00;0.00;0.62;0.00;0.00;0.62;5.50;3.70;;;28.50;27.00;;;;;;2249432;61;20357;-66
2021/06/11 07:16:16;0.00;0.00;0.62;0.00;0.00;0.62;3.67;3.30;;;28.50;26.90;;;;;;2248750;61;20385;-66
2021/06/11 07:18:42;0.00;0.00;0.62;0.00;0.00;0.62;3.20;2.90;;;28.60;26.90;;;;;;2248959;61;20373;-66
2021/06/11 07:21:11;0.00;0.00;0.62;0.00;0.00;0.62;4.27;3.03;;;28.50;26.80;;;;;;2249423;61;20396;-66
2021/06/11 07:23:38;0.00;0.00;0.62;0.00;0.00;0.62;3.70;3.00;;;28.50;26.80;;;;;;2248633;61;20627;-68
2021/06/11 07:26:07;0.00;0.00;0.62;0.00;0.00;0.62;4.00;3.70;;;28.50;26.80;;;;;;2249059;61;20395;-68
2021/06/11 07:28:35;0.00;0.00;0.62;0.00;0.00;0.62;4.30;3.53;;;28.50;26.80;;;;;;2249476;61;20620;-67
2021/06/11 07:31:03;0.00;0.00;0.62;0.00;0.00;0.62;5.93;3.63;;;28.50;26.80;;;;;;2248496;61;20373;-68
2021/06/11 07:33:30;0.00;0.00;0.62;0.00;0.00;0.62;3.80;3.50;;;28.50;26.80;;;;;;2251770;61;20365;-67
2021/06/11 07:35:58;0.00;0.00;0.62;0.00;0.00;0.62;5.37;3.57;;;28.50;26.80;;;;;;2249459;61;20734;-67
2021/06/11 07:38:25;0.00;0.00;0.62;0.00;0.00;0.62;4.10;3.70;;;28.50;26.90;;;;;;2248579;61;20634;-67
2021/06/11 07:40:53;0.00;0.00;0.62;0.00;0.00;0.62;3.70;3.17;;;28.50;26.90;;;;;;2249461;61;20382;-67
2021/06/11 07:43:20;0.00;0.00;0.62;0.00;0.00;0.62;3.90;3.43;;;28.50;27.00;;;;;;2250188;61;20441;-67
2021/06/11 07:45:46;0.00;0.00;0.62;0.00;0.00;0.62;3.80;3.50;;;28.60;27.10;;;;;;2252057;61;20403;-67
2021/06/11 07:48:15;0.00;0.00;0.62;0.00;0.00;0.62;4.33;3.93;;;28.60;27.10;;;;;;2249576;61;20745;-67
2021/06/11 07:50:42;0.00;0.00;0.62;0.00;0.00;0.62;3.80;3.50;;;28.60;27.70;;;;;;2250149;61;20407;-67
2021/06/11 07:53:09;0.00;0.00;0.62;0.00;0.00;0.62;4.13;3.67;;;28.60;27.20;;;;;;2249296;61;20358;-67
2021/06/11 07:55:36;0.00;0.00;0.62;0.00;0.00;0.62;3.83;3.33;;;28.60;27.30;;;;;;2249468;61;20377;-68
2021/06/11 07:58:03;0.00;0.00;0.62;0.00;0.00;0.62;3.80;3.50;;;28.60;27.30;;;;;;2250105;61;20361;-68
2021/06/11 08:00:29;0.00;0.00;0.62;0.00;0.00;0.62;4.03;3.73;;;28.60;27.30;;;;;;2249133;61;20377;-68
2021/06/11 08:02:57;0.00;0.00;0.62;0.00;0.00;0.62;4.60;3.90;;;28.70;27.50;;;;;;2249545;61;20731;-66
2021/06/11 08:05:26;0.00;0.00;0.62;0.00;0.00;0.62;4.50;4.10;;;28.70;27.50;;;;;;2250082;61;20729;-66
2021/06/11 08:07:53;0.00;0.00;0.62;0.00;0.00;0.62;4.37;4.07;;;28.70;27.50;;;;;;2249280;61;20408;-66
2021/06/11 08:10:23;0.00;0.00;0.62;0.00;0.00;0.62;3.90;3.50;;;28.80;27.60;;;;;;2249341;61;20731;-66
2021/06/11 08:12:50;0.00;0.00;0.62;0.00;0.00;0.62;4.23;3.93;;;28.80;27.70;;;;;;2250120;61;20393;-66
2021/06/11 08:15:16;0.00;0.00;0.62;0.00;0.00;0.62;3.73;3.43;;;28.80;27.70;;;;;;2249261;61;20389;-66
2021/06/11 08:17:43;0.00;0.00;0.62;0.00;0.00;0.62;4.50;4.10;;;28.80;27.70;;;;;;2249458;61;20749;-67
2021/06/11 08:20:11;0.00;0.00;0.62;0.00;0.00;0.62;4.03;3.67;;;28.80;27.80;;;;;;2252756;61;20361;-67
2021/06/11 08:22:38;0.00;0.00;0.62;0.00;0.00;0.62;4.60;4.20;;;28.90;27.80;;;;;;2249075;61;20365;-67
2021/06/11 08:25:08;0.00;0.00;0.62;0.00;0.00;0.62;4.80;4.27;;;28.90;27.80;;;;;;2249527;61;20358;-68
2021/06/11 08:27:34;0.00;0.00;0.62;0.00;0.00;0.62;4.90;4.40;;;28.90;27.80;;;;;;2252835;61;20357;-67
2021/06/11 08:30:02;0.00;0.00;0.62;0.00;0.00;0.62;4.30;4.00;;;28.90;27.80;;;;;;2249026;61;20361;-67
2021/06/11 08:32:28;0.00;0.00;0.62;0.00;0.00;0.62;4.07;3.77;;;28.90;27.80;;;;;;2249479;61;20669;-66
2021/06/11 08:34:55;0.00;0.00;0.62;0.00;0.00;0.62;5.07;4.60;;;29.00;27.90;;;;;;2250117;61;20748;-68
2021/06/11 08:37:23;0.00;0.00;0.62;0.00;0.00;0.62;4.23;3.83;;;29.00;27.90;;;;;;2249236;61;20373;-66
2021/06/11 08:39:55;0.00;0.00;0.62;0.00;0.00;0.62;3.80;3.50;;;29.00;28.10;;;;;;2249346;61;20358;-69
2021/06/11 08:42:28;0.00;0.00;0.62;0.00;0.00;0.62;5.10;4.10;;;29.00;28.20;;;;;;2250035;61;20489;-68
2021/06/11 08:44:57;0.00;0.00;0.62;0.00;0.00;0.62;4.60;4.20;;;29.10;28.40;;;;;;2249132;61;20357;-65
2021/06/11 08:47:26;0.00;0.00;0.62;0.00;0.00;0.62;4.20;3.80;;;29.10;28.50;;;;;;2249631;61;20357;-70
2021/06/11 08:49:54;0.00;0.00;0.62;0.00;0.00;0.62;9.33;5.07;;;29.10;28.60;;;;;;2249874;61;20361;-68
2021/06/11 08:52:21;0.00;0.00;0.62;0.00;0.00;0.62;4.80;4.40;;;29.20;28.80;;;;;;2248988;61;20381;-70
2021/06/11 08:54:49;0.00;0.00;0.62;0.00;0.00;0.62;5.20;4.70;;;29.20;28.80;;;;;;2249673;61;20420;-69
2021/06/11 08:57:17;0.00;0.00;0.62;0.00;0.00;0.62;4.87;4.37;;;29.30;29.00;;;;;;2252638;61;20703;-68
2021/06/11 08:59:45;0.00;0.00;0.62;0.00;0.00;0.62;5.23;4.40;;;29.30;29.00;;;;;;2248974;61;20350;-66
2021/06/11 09:02:12;0.00;0.00;0.62;0.00;0.00;0.62;5.07;4.67;;;29.30;29.00;;;;;;2249390;61;20460;-70
2021/06/11 09:04:44;0.00;0.00;0.62;0.00;0.00;0.62;6.03;4.90;;;29.30;29.00;;;;;;2249959;61;20440;-70
2021/06/11 09:07:25;0.00;0.00;0.62;0.00;0.00;0.62;5.87;5.37;;;29.40;29.10;;;;;;2249281;61;20369;-68
2021/06/11 09:09:59;0.00;0.00;0.62;0.00;0.00;0.62;5.80;5.30;;;29.40;29.00;;;;;;2249351;61;20357;-68
2021/06/11 09:12:32;0.00;0.00;0.62;0.00;0.00;0.62;7.43;6.50;;;29.50;29.10;;;;;;2249290;61;20749;-68
2021/06/11 09:15:05;0.00;0.00;0.62;0.00;0.00;0.62;6.33;5.80;;;29.50;29.10;;;;;;2249702;61;20382;-67
2021/06/11 09:17:38;0.00;0.00;0.62;0.00;0.00;0.62;6.07;5.47;;;29.50;29.10;;;;;;2249390;61;20358;-66
2021/06/11 09:20:10;0.00;0.00;0.62;0.00;0.00;0.62;5.17;4.67;;;29.60;28.90;;;;;;2249209;61;20388;-69
2021/06/11 09:22:46;0.00;0.00;0.62;0.00;0.00;0.62;5.30;4.80;;;29.60;28.80;;;;;;2252267;61;20371;-66
2021/06/11 09:25:31;0.00;0.00;0.62;0.00;0.00;0.62;5.90;5.40;;;29.60;28.70;;;;;;2249382;61;20798;-67
2021/06/11 09:28:02;0.00;0.00;0.62;0.00;0.00;0.62;5.10;4.70;;;29.60;28.70;;;;;;2249460;61;20693;-67
2021/06/11 09:30:46;0.00;0.00;0.62;0.00;0.00;0.62;6.43;5.57;;;29.60;28.60;;;;;;2249364;61;20361;-65
2021/06/11 09:33:15;0.00;0.00;0.62;0.00;0.00;0.62;6.77;6.17;;;29.60;28.70;;;;;;2252257;61;20358;-66
2021/06/11 09:35:45;0.00;0.00;0.62;0.00;0.00;0.62;5.53;5.13;;;29.70;28.80;;;;;;2249212;61;20461;-65
2021/06/11 09:38:17;0.00;0.00;0.62;0.00;0.00;0.62;5.87;5.27;;;29.70;28.80;;;;;;2249320;61;20537;-64
2021/06/11 09:40:49;0.00;0.00;0.62;0.00;0.00;0.62;6.10;5.50;;;29.70;28.80;;;;;;2249429;61;20409;-67
2021/06/11 09:43:16;0.00;0.00;0.62;0.00;0.00;0.62;6.07;5.67;;;29.70;28.90;;;;;;2249220;61;20389;-66
2021/06/11 09:45:57;0.00;0.00;0.62;0.00;0.00;0.62;6.10;5.50;;;29.70;29.00;;;;;;2249561;61;20358;-68